sensor_id;sensor_type;location;lat;lon;timestamp;P1;durP1;ratioP1;P2;durP2;ratioP2
53881;SDS011;39794;55.782;37.452;2022-12-11T00:02:18;15.82;;;9.00;;
53881;SDS011;39794;55.782;37.452;2022-12-11T00:04:47;11.27;;;6.70;;
53881;SDS011;39794;55.782;37.452;2022-12-11T00:07:15;9.27;;;5.00;;
53881;SDS011;39794;55.782;37.452;2022-12-11T00:09:44;16.73;;;8.15;;
53881;SDS011;39794;55.782;37.452;2022-12-11T00:12:12;15.73;;;8.18;;
53881;SDS011;39794;55.782;37.452;2022-12-11T00:14:40;14.02;;;7.57;;
53881;SDS011;39794;55.782;37.452;2022-12-11T00:17:11;12.93;;;8.23;;
53881;SDS011;39794;55.782;37.452;2022-12-11T00:19:39;12.60;;;6.75;;
53881;SDS011;39794;55.782;37.452;2022-12-11T00:22:08;9.88;;;5.82;;
53881;SDS011;39794;55.782;37.452;2022-12-11T00:24:36;14.48;;;8.27;;
53881;SDS011;39794;55.782;37.452;2022-12-11T00:27:04;12.50;;;6.65;;
53881;SDS011;39794;55.782;37.452;2022-12-11T00:29:33;16.15;;;8.55;;
53881;SDS011;39794;55.782;37.452;2022-12-11T00:32:02;17.75;;;9.80;;
53881;SDS011;39794;55.782;37.452;2022-12-11T00:34:33;14.65;;;8.48;;
53881;SDS011;39794;55.782;37.452;2022-12-11T00:37:01;15.20;;;8.68;;
53881;SDS011;39794;55.782;37.452;2022-12-11T00:39:30;19.00;;;8.98;;
53881;SDS011;39794;55.782;37.452;2022-12-11T00:41:58;11.57;;;6.90;;
53881;SDS011;39794;55.782;37.452;2022-12-11T00:44:26;8.52;;;4.82;;
53881;SDS011;39794;55.782;37.452;2022-12-11T00:46:55;13.15;;;7.55;;
53881;SDS011;39794;55.782;37.452;2022-12-11T00:49:23;14.85;;;7.20;;
53881;SDS011;39794;55.782;37.452;2022-12-11T00:51:53;17.77;;;9.07;;
53881;SDS011;39794;55.782;37.452;2022-12-11T00:54:21;16.08;;;9.07;;
53881;SDS011;39794;55.782;37.452;2022-12-11T00:56:50;16.95;;;9.73;;
53881;SDS011;39794;55.782;37.452;2022-12-11T00:59:18;17.95;;;10.05;;
53881;SDS011;39794;55.782;37.452;2022-12-11T01:01:47;22.88;;;10.60;;
53881;SDS011;39794;55.782;37.452;2022-12-11T01:04:15;18.45;;;8.20;;
53881;SDS011;39794;55.782;37.452;2022-12-11T01:06:43;19.55;;;9.73;;
53881;SDS011;39794;55.782;37.452;2022-12-11T01:09:13;20.45;;;10.07;;
53881;SDS011;39794;55.782;37.452;2022-12-11T01:11:59;20.40;;;10.57;;
53881;SDS011;39794;55.782;37.452;2022-12-11T01:14:27;26.15;;;10.43;;
53881;SDS011;39794;55.782;37.452;2022-12-11T01:16:56;21.73;;;10.02;;
53881;SDS011;39794;55.782;37.452;2022-12-11T01:19:24;23.67;;;9.73;;
53881;SDS011;39794;55.782;37.452;2022-12-11T01:21:52;21.45;;;10.43;;
53881;SDS011;39794;55.782;37.452;2022-12-11T01:24:22;18.27;;;8.73;;
53881;SDS011;39794;55.782;37.452;2022-12-11T01:26:51;25.48;;;10.65;;
53881;SDS011;39794;55.782;37.452;2022-12-11T01:29:19;22.23;;;10.50;;
53881;SDS011;39794;55.782;37.452;2022-12-11T01:31:47;20.98;;;9.73;;
53881;SDS011;39794;55.782;37.452;2022-12-11T01:34:16;19.73;;;9.63;;
53881;SDS011;39794;55.782;37.452;2022-12-11T01:36:44;27.45;;;12.27;;
53881;SDS011;39794;55.782;37.452;2022-12-11T01:39:12;31.42;;;14.73;;
53881;SDS011;39794;55.782;37.452;2022-12-11T01:41:42;29.02;;;14.48;;
53881;SDS011;39794;55.782;37.452;2022-12-11T01:47:12;23.42;;;11.63;;
53881;SDS011;39794;55.782;37.452;2022-12-11T01:49:42;21.98;;;10.75;;
53881;SDS011;39794;55.782;37.452;2022-12-11T01:52:11;23.25;;;9.85;;
53881;SDS011;39794;55.782;37.452;2022-12-11T01:54:43;16.33;;;7.97;;
53881;SDS011;39794;55.782;37.452;2022-12-11T01:57:12;20.27;;;9.73;;
53881;SDS011;39794;55.782;37.452;2022-12-11T01:59:43;22.85;;;10.13;;
53881;SDS011;39794;55.782;37.452;2022-12-11T02:02:14;25.83;;;8.77;;
53881;SDS011;39794;55.782;37.452;2022-12-11T02:04:46;21.80;;;10.55;;
53881;SDS011;39794;55.782;37.452;2022-12-11T02:07:15;32.22;;;13.73;;
53881;SDS011;39794;55.782;37.452;2022-12-11T02:09:44;26.75;;;12.68;;
53881;SDS011;39794;55.782;37.452;2022-12-11T02:12:17;32.85;;;12.88;;
53881;SDS011;39794;55.782;37.452;2022-12-11T02:14:52;26.92;;;10.40;;
53881;SDS011;39794;55.782;37.452;2022-12-11T02:17:28;31.33;;;12.32;;
53881;SDS011;39794;55.782;37.452;2022-12-11T02:20:02;22.90;;;11.25;;
53881;SDS011;39794;55.782;37.452;2022-12-11T02:22:38;17.85;;;8.52;;
53881;SDS011;39794;55.782;37.452;2022-12-11T02:25:20;15.02;;;7.43;;
53881;SDS011;39794;55.782;37.452;2022-12-11T02:27:52;26.63;;;13.25;;
53881;SDS011;39794;55.782;37.452;2022-12-11T02:30:32;29.15;;;13.07;;
53881;SDS011;39794;55.782;37.452;2022-12-11T02:33:02;18.60;;;8.57;;
53881;SDS011;39794;55.782;37.452;2022-12-11T02:35:31;27.33;;;12.90;;
53881;SDS011;39794;55.782;37.452;2022-12-11T02:38:01;27.95;;;12.48;;
53881;SDS011;39794;55.782;37.452;2022-12-11T02:40:32;30.73;;;11.77;;
53881;SDS011;39794;55.782;37.452;2022-12-11T02:43:04;16.40;;;8.43;;
53881;SDS011;39794;55.782;37.452;2022-12-11T02:45:34;17.23;;;7.65;;
53881;SDS011;39794;55.782;37.452;2022-12-11T02:48:04;28.83;;;12.93;;
53881;SDS011;39794;55.782;37.452;2022-12-11T02:50:34;27.83;;;10.13;;
53881;SDS011;39794;55.782;37.452;2022-12-11T02:53:03;29.25;;;12.50;;
53881;SDS011;39794;55.782;37.452;2022-12-11T02:55:33;25.08;;;10.27;;
53881;SDS011;39794;55.782;37.452;2022-12-11T02:58:05;33.53;;;12.43;;
53881;SDS011;39794;55.782;37.452;2022-12-11T03:00:35;31.75;;;13.60;;
53881;SDS011;39794;55.782;37.452;2022-12-11T03:03:03;17.13;;;8.02;;
53881;SDS011;39794;55.782;37.452;2022-12-11T03:05:31;21.95;;;7.97;;
53881;SDS011;39794;55.782;37.452;2022-12-11T03:08:00;27.52;;;11.57;;
53881;SDS011;39794;55.782;37.452;2022-12-11T03:10:29;32.10;;;9.27;;
53881;SDS011;39794;55.782;37.452;2022-12-11T03:12:57;20.75;;;8.82;;
53881;SDS011;39794;55.782;37.452;2022-12-11T03:15:29;15.05;;;7.40;;
53881;SDS011;39794;55.782;37.452;2022-12-11T03:18:02;16.75;;;7.15;;
53881;SDS011;39794;55.782;37.452;2022-12-11T03:20:35;29.70;;;11.13;;
53881;SDS011;39794;55.782;37.452;2022-12-11T03:23:08;14.20;;;7.03;;
53881;SDS011;39794;55.782;37.452;2022-12-11T03:25:42;24.23;;;8.77;;
53881;SDS011;39794;55.782;37.452;2022-12-11T03:28:13;27.02;;;9.45;;
53881;SDS011;39794;55.782;37.452;2022-12-11T03:30:46;31.52;;;11.57;;
53881;SDS011;39794;55.782;37.452;2022-12-11T03:33:17;29.75;;;11.20;;
53881;SDS011;39794;55.782;37.452;2022-12-11T03:35:51;27.35;;;9.82;;
53881;SDS011;39794;55.782;37.452;2022-12-11T03:38:22;37.58;;;8.40;;
53881;SDS011;39794;55.782;37.452;2022-12-11T03:40:53;29.20;;;10.93;;
53881;SDS011;39794;55.782;37.452;2022-12-11T03:43:23;30.15;;;10.30;;
53881;SDS011;39794;55.782;37.452;2022-12-11T03:45:54;27.55;;;10.82;;
53881;SDS011;39794;55.782;37.452;2022-12-11T03:48:24;17.65;;;8.35;;
53881;SDS011;39794;55.782;37.452;2022-12-11T03:51:04;26.52;;;10.43;;
53881;SDS011;39794;55.782;37.452;2022-12-11T03:53:33;17.55;;;7.15;;
53881;SDS011;39794;55.782;37.452;2022-12-11T03:56:03;29.98;;;9.85;;
53881;SDS011;39794;55.782;37.452;2022-12-11T03:58:33;30.85;;;12.05;;
53881;SDS011;39794;55.782;37.452;2022-12-11T04:01:03;24.63;;;8.55;;
53881;SDS011;39794;55.782;37.452;2022-12-11T04:03:31;29.55;;;11.02;;
53881;SDS011;39794;55.782;37.452;2022-12-11T04:05:59;30.10;;;11.60;;
53881;SDS011;39794;55.782;37.452;2022-12-11T04:08:28;20.60;;;8.90;;
53881;SDS011;39794;55.782;37.452;2022-12-11T04:10:56;30.63;;;10.70;;
53881;SDS011;39794;55.782;37.452;2022-12-11T04:13:38;25.83;;;9.57;;
53881;SDS011;39794;55.782;37.452;2022-12-11T04:16:09;12.68;;;6.15;;
53881;SDS011;39794;55.782;37.452;2022-12-11T04:18:36;28.52;;;10.93;;
53881;SDS011;39794;55.782;37.452;2022-12-11T04:21:22;19.20;;;6.45;;
53881;SDS011;39794;55.782;37.452;2022-12-11T04:24:07;20.00;;;8.25;;
53881;SDS011;39794;55.782;37.452;2022-12-11T04:26:42;26.58;;;8.70;;
53881;SDS011;39794;55.782;37.452;2022-12-11T04:29:11;33.22;;;11.32;;
53881;SDS011;39794;55.782;37.452;2022-12-11T04:31:41;36.17;;;12.57;;
53881;SDS011;39794;55.782;37.452;2022-12-11T04:34:09;18.40;;;7.47;;
53881;SDS011;39794;55.782;37.452;2022-12-11T04:36:37;20.55;;;6.95;;
53881;SDS011;39794;55.782;37.452;2022-12-11T04:39:06;30.30;;;12.15;;
53881;SDS011;39794;55.782;37.452;2022-12-11T04:41:34;34.80;;;10.27;;
53881;SDS011;39794;55.782;37.452;2022-12-11T04:44:04;20.10;;;7.65;;
53881;SDS011;39794;55.782;37.452;2022-12-11T04:46:33;33.08;;;13.35;;
53881;SDS011;39794;55.782;37.452;2022-12-11T04:49:03;19.65;;;8.30;;
53881;SDS011;39794;55.782;37.452;2022-12-11T04:51:31;35.45;;;12.90;;
53881;SDS011;39794;55.782;37.452;2022-12-11T04:53:59;30.67;;;10.82;;
53881;SDS011;39794;55.782;37.452;2022-12-11T04:56:28;21.02;;;8.95;;
53881;SDS011;39794;55.782;37.452;2022-12-11T04:58:56;16.25;;;7.43;;
53881;SDS011;39794;55.782;37.452;2022-12-11T05:01:24;24.48;;;9.82;;
53881;SDS011;39794;55.782;37.452;2022-12-11T05:03:53;40.83;;;11.55;;
53881;SDS011;39794;55.782;37.452;2022-12-11T05:06:23;41.30;;;11.80;;
53881;SDS011;39794;55.782;37.452;2022-12-11T05:08:51;26.45;;;10.38;;
53881;SDS011;39794;55.782;37.452;2022-12-11T05:11:20;27.88;;;8.30;;
53881;SDS011;39794;55.782;37.452;2022-12-11T05:13:48;31.92;;;13.10;;
53881;SDS011;39794;55.782;37.452;2022-12-11T05:16:17;48.22;;;13.98;;
53881;SDS011;39794;55.782;37.452;2022-12-11T05:18:45;39.03;;;13.98;;
53881;SDS011;39794;55.782;37.452;2022-12-11T05:21:14;32.80;;;11.98;;
53881;SDS011;39794;55.782;37.452;2022-12-11T05:23:44;42.60;;;14.82;;
53881;SDS011;39794;55.782;37.452;2022-12-11T05:26:13;32.83;;;13.20;;
53881;SDS011;39794;55.782;37.452;2022-12-11T05:28:42;41.25;;;14.80;;
53881;SDS011;39794;55.782;37.452;2022-12-11T05:31:11;37.38;;;12.70;;
53881;SDS011;39794;55.782;37.452;2022-12-11T05:33:41;28.65;;;9.52;;
53881;SDS011;39794;55.782;37.452;2022-12-11T05:36:16;26.67;;;10.45;;
53881;SDS011;39794;55.782;37.452;2022-12-11T05:38:51;39.13;;;13.05;;
53881;SDS011;39794;55.782;37.452;2022-12-11T05:41:24;20.05;;;9.05;;
53881;SDS011;39794;55.782;37.452;2022-12-11T05:43:54;27.33;;;9.93;;
53881;SDS011;39794;55.782;37.452;2022-12-11T05:46:23;34.72;;;13.57;;
53881;SDS011;39794;55.782;37.452;2022-12-11T05:48:53;19.60;;;8.00;;
53881;SDS011;39794;55.782;37.452;2022-12-11T05:51:23;24.33;;;9.25;;
53881;SDS011;39794;55.782;37.452;2022-12-11T05:53:53;33.60;;;11.65;;
53881;SDS011;39794;55.782;37.452;2022-12-11T05:56:23;24.70;;;9.32;;
53881;SDS011;39794;55.782;37.452;2022-12-11T05:58:53;25.92;;;9.90;;
53881;SDS011;39794;55.782;37.452;2022-12-11T06:01:22;28.65;;;11.50;;
53881;SDS011;39794;55.782;37.452;2022-12-11T06:03:54;28.90;;;11.25;;
53881;SDS011;39794;55.782;37.452;2022-12-11T06:06:23;20.45;;;8.48;;
53881;SDS011;39794;55.782;37.452;2022-12-11T06:08:54;33.20;;;12.55;;
53881;SDS011;39794;55.782;37.452;2022-12-11T06:11:23;36.72;;;13.20;;
53881;SDS011;39794;55.782;37.452;2022-12-11T06:13:52;32.45;;;13.57;;
53881;SDS011;39794;55.782;37.452;2022-12-11T06:16:21;30.13;;;12.00;;
53881;SDS011;39794;55.782;37.452;2022-12-11T06:18:50;22.58;;;9.18;;
53881;SDS011;39794;55.782;37.452;2022-12-11T06:21:24;38.25;;;12.25;;
53881;SDS011;39794;55.782;37.452;2022-12-11T06:23:57;25.55;;;10.15;;
53881;SDS011;39794;55.782;37.452;2022-12-11T06:26:27;18.92;;;7.25;;
53881;SDS011;39794;55.782;37.452;2022-12-11T06:28:55;35.80;;;12.43;;
53881;SDS011;39794;55.782;37.452;2022-12-11T06:31:24;18.27;;;7.85;;
53881;SDS011;39794;55.782;37.452;2022-12-11T06:33:52;27.10;;;11.85;;
53881;SDS011;39794;55.782;37.452;2022-12-11T06:36:21;26.95;;;11.65;;
53881;SDS011;39794;55.782;37.452;2022-12-11T06:38:50;17.88;;;8.63;;
53881;SDS011;39794;55.782;37.452;2022-12-11T06:41:21;22.23;;;9.35;;
53881;SDS011;39794;55.782;37.452;2022-12-11T06:43:49;18.13;;;7.72;;
53881;SDS011;39794;55.782;37.452;2022-12-11T06:46:18;28.45;;;12.35;;
53881;SDS011;39794;55.782;37.452;2022-12-11T06:48:47;28.13;;;12.88;;
53881;SDS011;39794;55.782;37.452;2022-12-11T06:51:16;27.65;;;12.35;;
53881;SDS011;39794;55.782;37.452;2022-12-11T06:53:49;26.40;;;10.45;;
53881;SDS011;39794;55.782;37.452;2022-12-11T06:56:19;20.35;;;9.52;;
53881;SDS011;39794;55.782;37.452;2022-12-11T06:58:49;24.00;;;11.50;;
53881;SDS011;39794;55.782;37.452;2022-12-11T07:01:18;28.95;;;12.82;;
53881;SDS011;39794;55.782;37.452;2022-12-11T07:03:47;33.30;;;12.38;;
53881;SDS011;39794;55.782;37.452;2022-12-11T07:06:17;31.95;;;11.00;;
53881;SDS011;39794;55.782;37.452;2022-12-11T07:08:45;26.02;;;11.68;;
53881;SDS011;39794;55.782;37.452;2022-12-11T07:11:14;21.77;;;9.27;;
53881;SDS011;39794;55.782;37.452;2022-12-11T07:13:45;22.08;;;9.32;;
53881;SDS011;39794;55.782;37.452;2022-12-11T07:16:14;36.70;;;13.20;;
53881;SDS011;39794;55.782;37.452;2022-12-11T07:18:46;25.92;;;11.13;;
53881;SDS011;39794;55.782;37.452;2022-12-11T07:21:16;31.65;;;11.93;;
53881;SDS011;39794;55.782;37.452;2022-12-11T07:23:45;17.70;;;8.63;;
53881;SDS011;39794;55.782;37.452;2022-12-11T07:26:15;26.67;;;10.63;;
53881;SDS011;39794;55.782;37.452;2022-12-11T07:28:46;28.73;;;12.63;;
53881;SDS011;39794;55.782;37.452;2022-12-11T07:31:15;36.13;;;12.60;;
53881;SDS011;39794;55.782;37.452;2022-12-11T07:33:51;29.58;;;14.43;;
53881;SDS011;39794;55.782;37.452;2022-12-11T07:36:20;29.25;;;12.77;;
53881;SDS011;39794;55.782;37.452;2022-12-11T07:38:50;31.90;;;14.48;;
53881;SDS011;39794;55.782;37.452;2022-12-11T07:41:22;31.60;;;12.07;;
53881;SDS011;39794;55.782;37.452;2022-12-11T07:43:55;25.85;;;13.20;;
53881;SDS011;39794;55.782;37.452;2022-12-11T07:46:26;25.83;;;11.70;;
53881;SDS011;39794;55.782;37.452;2022-12-11T07:48:56;18.98;;;9.23;;
53881;SDS011;39794;55.782;37.452;2022-12-11T07:51:29;20.65;;;8.35;;
53881;SDS011;39794;55.782;37.452;2022-12-11T07:53:59;21.48;;;10.35;;
53881;SDS011;39794;55.782;37.452;2022-12-11T07:56:32;29.25;;;13.20;;
53881;SDS011;39794;55.782;37.452;2022-12-11T07:59:03;27.08;;;12.15;;
53881;SDS011;39794;55.782;37.452;2022-12-11T08:01:32;12.38;;;6.47;;
53881;SDS011;39794;55.782;37.452;2022-12-11T08:04:02;13.88;;;6.47;;
53881;SDS011;39794;55.782;37.452;2022-12-11T08:06:32;21.55;;;11.05;;
53881;SDS011;39794;55.782;37.452;2022-12-11T08:09:02;24.40;;;11.82;;
53881;SDS011;39794;55.782;37.452;2022-12-11T08:11:32;24.95;;;11.48;;
53881;SDS011;39794;55.782;37.452;2022-12-11T08:14:03;21.15;;;9.48;;
53881;SDS011;39794;55.782;37.452;2022-12-11T08:16:34;22.27;;;11.55;;
53881;SDS011;39794;55.782;37.452;2022-12-11T08:21:37;22.83;;;11.45;;
53881;SDS011;39794;55.782;37.452;2022-12-11T08:24:06;22.83;;;10.48;;
53881;SDS011;39794;55.782;37.452;2022-12-11T08:26:35;24.92;;;11.32;;
53881;SDS011;39794;55.782;37.452;2022-12-11T08:29:05;18.00;;;7.70;;
53881;SDS011;39794;55.782;37.452;2022-12-11T08:31:33;13.68;;;8.68;;
53881;SDS011;39794;55.782;37.452;2022-12-11T08:34:03;22.13;;;10.35;;
53881;SDS011;39794;55.782;37.452;2022-12-11T08:36:31;20.00;;;8.60;;
53881;SDS011;39794;55.782;37.452;2022-12-11T08:39:01;21.35;;;10.05;;
53881;SDS011;39794;55.782;37.452;2022-12-11T08:41:30;22.40;;;8.15;;
53881;SDS011;39794;55.782;37.452;2022-12-11T08:43:58;14.55;;;8.05;;
53881;SDS011;39794;55.782;37.452;2022-12-11T08:46:59;22.60;;;10.77;;
53881;SDS011;39794;55.782;37.452;2022-12-11T08:49:28;12.30;;;7.20;;
53881;SDS011;39794;55.782;37.452;2022-12-11T08:52:01;23.15;;;12.73;;
53881;SDS011;39794;55.782;37.452;2022-12-11T08:54:30;24.15;;;12.30;;
53881;SDS011;39794;55.782;37.452;2022-12-11T08:56:58;20.33;;;10.13;;
53881;SDS011;39794;55.782;37.452;2022-12-11T08:59:27;20.17;;;9.05;;
53881;SDS011;39794;55.782;37.452;2022-12-11T09:01:58;16.63;;;9.45;;
53881;SDS011;39794;55.782;37.452;2022-12-11T09:04:26;25.83;;;11.88;;
53881;SDS011;39794;55.782;37.452;2022-12-11T09:06:55;26.42;;;12.43;;
53881;SDS011;39794;55.782;37.452;2022-12-11T09:09:23;26.27;;;11.90;;
53881;SDS011;39794;55.782;37.452;2022-12-11T09:11:51;23.30;;;9.70;;
53881;SDS011;39794;55.782;37.452;2022-12-11T09:14:20;24.63;;;12.60;;
53881;SDS011;39794;55.782;37.452;2022-12-11T09:16:48;22.00;;;11.35;;
53881;SDS011;39794;55.782;37.452;2022-12-11T09:19:18;21.08;;;11.48;;
53881;SDS011;39794;55.782;37.452;2022-12-11T09:21:46;13.20;;;8.07;;
53881;SDS011;39794;55.782;37.452;2022-12-11T09:24:16;15.43;;;8.30;;
53881;SDS011;39794;55.782;37.452;2022-12-11T09:26:50;15.70;;;7.88;;
53881;SDS011;39794;55.782;37.452;2022-12-11T09:29:20;20.48;;;10.07;;
53881;SDS011;39794;55.782;37.452;2022-12-11T09:31:51;24.75;;;13.32;;
53881;SDS011;39794;55.782;37.452;2022-12-11T09:34:21;23.50;;;12.23;;
53881;SDS011;39794;55.782;37.452;2022-12-11T09:36:55;20.08;;;12.05;;
53881;SDS011;39794;55.782;37.452;2022-12-11T09:39:24;21.73;;;11.05;;
53881;SDS011;39794;55.782;37.452;2022-12-11T09:41:54;16.42;;;11.25;;
53881;SDS011;39794;55.782;37.452;2022-12-11T09:46:59;20.40;;;10.93;;
53881;SDS011;39794;55.782;37.452;2022-12-11T09:52:27;24.85;;;12.00;;
53881;SDS011;39794;55.782;37.452;2022-12-11T09:55:05;24.42;;;13.60;;
53881;SDS011;39794;55.782;37.452;2022-12-11T09:57:46;22.42;;;10.57;;
53881;SDS011;39794;55.782;37.452;2022-12-11T10:00:23;16.42;;;9.30;;
53881;SDS011;39794;55.782;37.452;2022-12-11T10:03:33;25.77;;;14.02;;
53881;SDS011;39794;55.782;37.452;2022-12-11T10:06:29;21.50;;;10.32;;
53881;SDS011;39794;55.782;37.452;2022-12-11T10:09:53;18.42;;;10.88;;
53881;SDS011;39794;55.782;37.452;2022-12-11T10:12:57;20.77;;;12.23;;
53881;SDS011;39794;55.782;37.452;2022-12-11T10:15:58;22.45;;;10.85;;
53881;SDS011;39794;55.782;37.452;2022-12-11T10:19:09;13.52;;;8.65;;
53881;SDS011;39794;55.782;37.452;2022-12-11T10:25:39;25.17;;;13.20;;
53881;SDS011;39794;55.782;37.452;2022-12-11T10:28:26;11.65;;;7.10;;
53881;SDS011;39794;55.782;37.452;2022-12-11T10:31:26;23.63;;;11.75;;
53881;SDS011;39794;55.782;37.452;2022-12-11T10:34:02;27.33;;;12.77;;
53881;SDS011;39794;55.782;37.452;2022-12-11T10:36:34;14.82;;;8.20;;
53881;SDS011;39794;55.782;37.452;2022-12-11T10:39:10;21.92;;;13.15;;
53881;SDS011;39794;55.782;37.452;2022-12-11T10:41:47;22.90;;;12.32;;
53881;SDS011;39794;55.782;37.452;2022-12-11T10:44:18;21.88;;;12.40;;
53881;SDS011;39794;55.782;37.452;2022-12-11T10:46:59;22.77;;;12.10;;
53881;SDS011;39794;55.782;37.452;2022-12-11T10:49:31;22.00;;;12.32;;
53881;SDS011;39794;55.782;37.452;2022-12-11T10:52:08;15.93;;;9.40;;
53881;SDS011;39794;55.782;37.452;2022-12-11T10:54:45;17.87;;;10.27;;
53881;SDS011;39794;55.782;37.452;2022-12-11T10:57:32;15.88;;;8.95;;
53881;SDS011;39794;55.782;37.452;2022-12-11T11:00:25;14.88;;;8.40;;
53881;SDS011;39794;55.782;37.452;2022-12-11T11:03:17;17.02;;;9.30;;
53881;SDS011;39794;55.782;37.452;2022-12-11T11:06:00;26.17;;;14.20;;
53881;SDS011;39794;55.782;37.452;2022-12-11T11:08:37;17.00;;;9.35;;
53881;SDS011;39794;55.782;37.452;2022-12-11T11:11:25;16.63;;;9.75;;
53881;SDS011;39794;55.782;37.452;2022-12-11T11:14:11;20.80;;;10.75;;
53881;SDS011;39794;55.782;37.452;2022-12-11T11:16:54;19.17;;;8.13;;
53881;SDS011;39794;55.782;37.452;2022-12-11T11:19:24;20.63;;;9.63;;
53881;SDS011;39794;55.782;37.452;2022-12-11T11:21:59;29.57;;;14.00;;
53881;SDS011;39794;55.782;37.452;2022-12-11T11:24:32;25.23;;;13.50;;
53881;SDS011;39794;55.782;37.452;2022-12-11T11:27:04;24.90;;;12.10;;
53881;SDS011;39794;55.782;37.452;2022-12-11T11:29:46;16.90;;;10.32;;
53881;SDS011;39794;55.782;37.452;2022-12-11T11:32:19;13.82;;;7.57;;
53881;SDS011;39794;55.782;37.452;2022-12-11T11:34:51;15.18;;;8.27;;
53881;SDS011;39794;55.782;37.452;2022-12-11T11:37:22;19.33;;;11.05;;
53881;SDS011;39794;55.782;37.452;2022-12-11T11:40:05;11.15;;;6.78;;
53881;SDS011;39794;55.782;37.452;2022-12-11T11:42:54;17.63;;;11.05;;
53881;SDS011;39794;55.782;37.452;2022-12-11T11:45:36;20.70;;;11.75;;
53881;SDS011;39794;55.782;37.452;2022-12-11T11:51:25;17.30;;;8.48;;
53881;SDS011;39794;55.782;37.452;2022-12-11T11:54:17;20.02;;;10.13;;
53881;SDS011;39794;55.782;37.452;2022-12-11T11:57:03;13.85;;;7.63;;
53881;SDS011;39794;55.782;37.452;2022-12-11T11:59:45;17.60;;;8.88;;
53881;SDS011;39794;55.782;37.452;2022-12-11T12:02:20;28.25;;;15.15;;
53881;SDS011;39794;55.782;37.452;2022-12-11T12:04:50;19.85;;;9.82;;
53881;SDS011;39794;55.782;37.452;2022-12-11T12:07:28;18.35;;;9.50;;
53881;SDS011;39794;55.782;37.452;2022-12-11T12:10:18;27.63;;;13.77;;
53881;SDS011;39794;55.782;37.452;2022-12-11T12:13:29;22.95;;;11.77;;
53881;SDS011;39794;55.782;37.452;2022-12-11T12:16:39;17.30;;;9.00;;
53881;SDS011;39794;55.782;37.452;2022-12-11T12:23:01;28.55;;;12.73;;
53881;SDS011;39794;55.782;37.452;2022-12-11T12:26:05;19.90;;;9.07;;
53881;SDS011;39794;55.782;37.452;2022-12-11T12:30:07;20.65;;;11.68;;
53881;SDS011;39794;55.782;37.452;2022-12-11T12:32:54;24.35;;;12.65;;
53881;SDS011;39794;55.782;37.452;2022-12-11T12:35:32;19.13;;;10.93;;
53881;SDS011;39794;55.782;37.452;2022-12-11T12:38:07;19.13;;;9.88;;
53881;SDS011;39794;55.782;37.452;2022-12-11T12:40:39;25.73;;;12.18;;
53881;SDS011;39794;55.782;37.452;2022-12-11T12:43:28;13.05;;;7.07;;
53881;SDS011;39794;55.782;37.452;2022-12-11T12:46:05;20.38;;;9.40;;
53881;SDS011;39794;55.782;37.452;2022-12-11T12:48:38;17.48;;;8.65;;
53881;SDS011;39794;55.782;37.452;2022-12-11T12:51:09;17.80;;;9.80;;
53881;SDS011;39794;55.782;37.452;2022-12-11T12:53:42;18.25;;;9.68;;
53881;SDS011;39794;55.782;37.452;2022-12-11T12:56:14;11.27;;;7.35;;
53881;SDS011;39794;55.782;37.452;2022-12-11T12:58:43;12.25;;;6.20;;
53881;SDS011;39794;55.782;37.452;2022-12-11T13:01:14;12.25;;;8.02;;
53881;SDS011;39794;55.782;37.452;2022-12-11T13:03:49;8.68;;;5.53;;
53881;SDS011;39794;55.782;37.452;2022-12-11T13:06:28;16.58;;;8.52;;
53881;SDS011;39794;55.782;37.452;2022-12-11T13:09:16;11.98;;;6.90;;
53881;SDS011;39794;55.782;37.452;2022-12-11T13:14:23;10.30;;;5.95;;
53881;SDS011;39794;55.782;37.452;2022-12-11T13:20:08;11.77;;;7.22;;
53881;SDS011;39794;55.782;37.452;2022-12-11T13:22:47;13.02;;;8.02;;
53881;SDS011;39794;55.782;37.452;2022-12-11T13:25:23;11.18;;;6.28;;
53881;SDS011;39794;55.782;37.452;2022-12-11T13:28:03;11.45;;;5.38;;
53881;SDS011;39794;55.782;37.452;2022-12-11T13:30:55;10.10;;;5.88;;
53881;SDS011;39794;55.782;37.452;2022-12-11T13:34:15;12.00;;;6.45;;
53881;SDS011;39794;55.782;37.452;2022-12-11T13:36:49;7.72;;;5.18;;
53881;SDS011;39794;55.782;37.452;2022-12-11T13:44:49;10.48;;;5.00;;
53881;SDS011;39794;55.782;37.452;2022-12-11T13:49:53;9.07;;;6.28;;
53881;SDS011;39794;55.782;37.452;2022-12-11T13:52:23;9.68;;;6.68;;
53881;SDS011;39794;55.782;37.452;2022-12-11T13:54:54;8.48;;;5.05;;
53881;SDS011;39794;55.782;37.452;2022-12-11T13:57:26;9.07;;;6.20;;
53881;SDS011;39794;55.782;37.452;2022-12-11T13:59:56;10.65;;;6.13;;
53881;SDS011;39794;55.782;37.452;2022-12-11T14:02:26;15.15;;;8.80;;
53881;SDS011;39794;55.782;37.452;2022-12-11T14:04:56;11.90;;;7.22;;
53881;SDS011;39794;55.782;37.452;2022-12-11T14:07:27;14.68;;;9.45;;
53881;SDS011;39794;55.782;37.452;2022-12-11T14:09:58;13.52;;;8.25;;
53881;SDS011;39794;55.782;37.452;2022-12-11T14:12:30;12.30;;;6.55;;
53881;SDS011;39794;55.782;37.452;2022-12-11T14:15:00;8.27;;;6.15;;
53881;SDS011;39794;55.782;37.452;2022-12-11T14:17:34;7.82;;;5.22;;
53881;SDS011;39794;55.782;37.452;2022-12-11T14:20:04;10.18;;;4.43;;
53881;SDS011;39794;55.782;37.452;2022-12-11T14:22:34;11.30;;;7.20;;
53881;SDS011;39794;55.782;37.452;2022-12-11T14:25:15;11.70;;;5.95;;
53881;SDS011;39794;55.782;37.452;2022-12-11T14:27:50;12.10;;;6.40;;
53881;SDS011;39794;55.782;37.452;2022-12-11T14:30:20;7.25;;;3.88;;
53881;SDS011;39794;55.782;37.452;2022-12-11T14:32:50;9.38;;;4.95;;
53881;SDS011;39794;55.782;37.452;2022-12-11T14:35:23;7.00;;;4.35;;
53881;SDS011;39794;55.782;37.452;2022-12-11T14:37:52;16.40;;;8.20;;
53881;SDS011;39794;55.782;37.452;2022-12-11T14:40:22;9.60;;;5.65;;
53881;SDS011;39794;55.782;37.452;2022-12-11T14:43:06;10.52;;;5.57;;
53881;SDS011;39794;55.782;37.452;2022-12-11T14:45:36;7.95;;;5.18;;
53881;SDS011;39794;55.782;37.452;2022-12-11T14:48:07;8.48;;;5.05;;
53881;SDS011;39794;55.782;37.452;2022-12-11T14:50:40;11.63;;;7.50;;
53881;SDS011;39794;55.782;37.452;2022-12-11T14:53:13;9.50;;;5.83;;
53881;SDS011;39794;55.782;37.452;2022-12-11T14:55:44;10.73;;;6.93;;
53881;SDS011;39794;55.782;37.452;2022-12-11T14:58:16;10.38;;;6.28;;
53881;SDS011;39794;55.782;37.452;2022-12-11T15:00:54;14.80;;;6.95;;
53881;SDS011;39794;55.782;37.452;2022-12-11T15:03:24;7.03;;;5.00;;
53881;SDS011;39794;55.782;37.452;2022-12-11T15:05:59;11.15;;;6.20;;
53881;SDS011;39794;55.782;37.452;2022-12-11T15:08:29;9.45;;;5.55;;
53881;SDS011;39794;55.782;37.452;2022-12-11T15:11:03;11.85;;;7.32;;
53881;SDS011;39794;55.782;37.452;2022-12-11T15:13:36;13.73;;;5.80;;
53881;SDS011;39794;55.782;37.452;2022-12-11T15:16:06;13.65;;;6.90;;
53881;SDS011;39794;55.782;37.452;2022-12-11T15:18:36;9.13;;;6.05;;
53881;SDS011;39794;55.782;37.452;2022-12-11T15:21:06;7.97;;;5.57;;
53881;SDS011;39794;55.782;37.452;2022-12-11T15:23:45;12.15;;;7.03;;
53881;SDS011;39794;55.782;37.452;2022-12-11T15:26:16;11.40;;;7.15;;
53881;SDS011;39794;55.782;37.452;2022-12-11T15:28:57;11.00;;;6.85;;